createdAt,value
2019-05-06T00:02:31.436Z,4.80
2019-05-06T00:05:21.887Z,4.30
2019-05-06T00:08:14.471Z,4.70
2019-05-06T00:11:05.543Z,6.00
2019-05-06T00:13:56.220Z,7.67
2019-05-06T00:16:47.843Z,5.67
2019-05-06T00:19:37.993Z,4.93
2019-05-06T00:22:29.025Z,4.30
2019-05-06T00:25:27.552Z,5.03
2019-05-06T00:28:39.797Z,5.23
2019-05-06T00:31:30.297Z,4.40
2019-05-06T00:34:20.685Z,4.20
2019-05-06T00:37:11.391Z,4.43
2019-05-06T00:40:08.342Z,4.67
2019-05-06T00:43:09.606Z,3.93
2019-05-06T00:46:00.857Z,4.23
2019-05-06T00:48:50.969Z,4.37
2019-05-06T00:51:41.153Z,3.63
2019-05-06T00:54:33.927Z,3.80
2019-05-06T00:57:43.833Z,3.97
2019-05-06T01:00:38.068Z,3.67
2019-05-06T01:03:28.432Z,4.00
2019-05-06T01:06:18.650Z,4.10
2019-05-06T01:09:10.723Z,3.73
2019-05-06T01:12:03.746Z,4.17
2019-05-06T01:14:55.827Z,4.40
2019-05-06T01:17:46.513Z,4.33
2019-05-06T01:20:37.584Z,4.00
2019-05-06T01:23:28.122Z,3.90
2019-05-06T01:26:19.141Z,4.53
2019-05-06T01:29:09.506Z,4.00
2019-05-06T01:31:59.631Z,4.23
2019-05-06T01:34:50.152Z,4.47
2019-05-06T01:37:44.111Z,4.30
2019-05-06T01:40:43.954Z,3.83
2019-05-06T01:43:35.348Z,4.17
2019-05-06T01:46:26.348Z,4.23
2019-05-06T01:49:17.708Z,3.90
2019-05-06T01:52:08.099Z,3.63
2019-05-06T01:54:59.380Z,4.03
2019-05-06T01:57:49.567Z,4.03
2019-05-06T02:00:40.676Z,3.53
2019-05-06T02:03:30.881Z,3.87
2019-05-06T02:06:22.214Z,3.77
2019-05-06T02:09:16.611Z,4.20
2019-05-06T02:12:07.072Z,4.20
2019-05-06T02:14:57.552Z,4.43
2019-05-06T02:17:47.798Z,3.80
2019-05-06T02:20:40.371Z,3.53
2019-05-06T02:23:33.863Z,4.13
2019-05-06T02:26:24.496Z,4.57
2019-05-06T02:29:17.175Z,3.23
2019-05-06T02:32:31.443Z,3.53
2019-05-06T02:35:36.568Z,3.37
2019-05-06T02:38:39.206Z,3.43
2019-05-06T02:41:23.292Z,3.67
2019-05-06T02:44:13.864Z,3.77
2019-05-06T02:47:27.403Z,3.53
2019-05-06T02:50:23.787Z,3.50
2019-05-06T02:53:13.505Z,4.13
2019-05-06T02:56:04.659Z,3.63
2019-05-06T02:58:55.924Z,4.43
2019-05-06T03:01:47.313Z,4.03
2019-05-06T03:04:37.673Z,3.80
2019-05-06T03:07:28.643Z,3.67
2019-05-06T03:10:19.918Z,4.20
2019-05-06T03:13:13.829Z,3.67
2019-05-06T03:16:05.684Z,3.87
2019-05-06T03:18:55.090Z,3.60
2019-05-06T03:22:17.228Z,3.80
2019-05-06T03:25:19.272Z,4.13
2019-05-06T03:28:13.082Z,3.63
2019-05-06T03:31:06.968Z,3.70
2019-05-06T03:34:17.178Z,3.77
2019-05-06T03:36:48.458Z,4.10
2019-05-06T03:39:38.713Z,4.40
2019-05-06T03:42:28.931Z,3.70
2019-05-06T03:45:26.650Z,3.57
2019-05-06T03:48:33.073Z,4.23
2019-05-06T03:51:23.372Z,4.57
2019-05-06T03:54:14.434Z,4.30
2019-05-06T03:57:05.582Z,5.20
2019-05-06T03:59:56.948Z,4.27
2019-05-06T04:02:47.043Z,5.20
2019-05-06T04:05:38.196Z,4.57
2019-05-06T04:08:28.898Z,5.13
2019-05-06T04:11:22.644Z,5.10
2019-05-06T04:14:14.062Z,3.70
2019-05-06T04:17:29.589Z,4.13
2019-05-06T04:20:56.735Z,4.13
2019-05-06T04:23:57.051Z,5.00
2019-05-06T04:26:53.933Z,4.60
2019-05-06T04:29:44.377Z,5.13
2019-05-06T04:32:34.670Z,4.97
2019-05-06T04:35:25.351Z,4.87
2019-05-06T04:38:16.288Z,4.90
2019-05-06T04:41:07.529Z,4.33
2019-05-06T04:43:58.805Z,4.53
2019-05-06T04:46:49.057Z,4.17
2019-05-06T04:49:39.486Z,4.47
2019-05-06T04:52:29.688Z,4.87
2019-05-06T04:55:22.619Z,4.43
2019-05-06T04:58:13.751Z,4.37
2019-05-06T05:01:04.554Z,3.47
2019-05-06T05:03:55.890Z,4.33
2019-05-06T05:06:47.255Z,3.87
2019-05-06T05:09:37.555Z,3.67
2019-05-06T05:12:34.640Z,3.63
2019-05-06T05:15:46.735Z,4.50
2019-05-06T05:18:56.683Z,3.60
2019-05-06T05:21:47.579Z,3.83
2019-05-06T05:24:38.589Z,4.30
2019-05-06T05:27:28.825Z,4.47
2019-05-06T05:30:19.048Z,4.30
2019-05-06T05:33:09.422Z,4.30
2019-05-06T05:36:02.116Z,5.00
2019-05-06T05:38:52.693Z,3.87
2019-05-06T05:41:44.027Z,4.40
2019-05-06T05:44:37.625Z,4.90
2019-05-06T05:47:28.658Z,5.07
2019-05-06T05:50:32.830Z,5.23
2019-05-06T05:53:23.377Z,4.80
2019-05-06T05:56:13.786Z,5.93
2019-05-06T05:59:04.039Z,6.00
2019-05-06T06:01:54.655Z,5.17
2019-05-06T06:04:56.482Z,5.73
2019-05-06T06:07:38.290Z,6.27
2019-05-06T06:10:47.628Z,5.63
2019-05-06T06:13:37.980Z,5.83
2019-05-06T06:16:48.303Z,5.83
2019-05-06T06:19:48.617Z,5.87
2019-05-06T06:22:38.820Z,5.50
2019-05-06T06:25:33.241Z,5.63
2019-05-06T06:28:22.792Z,5.63
2019-05-06T06:31:23.142Z,5.53
2019-05-06T06:34:28.727Z,5.90
2019-05-06T06:37:56.645Z,5.27
2019-05-06T06:40:47.704Z,5.80
2019-05-06T06:43:39.200Z,6.00
2019-05-06T06:46:29.422Z,4.47
2019-05-06T06:49:21.803Z,5.23
2019-05-06T06:52:14.713Z,5.90
2019-05-06T06:55:03.995Z,4.97
2019-05-06T06:58:12.012Z,4.87
2019-05-06T07:01:23.386Z,6.00
2019-05-06T07:04:18.995Z,5.67
2019-05-06T07:07:12.786Z,5.80
2019-05-06T07:10:02.607Z,5.97
2019-05-06T07:12:53.290Z,5.43
2019-05-06T07:15:44.014Z,5.87
2019-05-06T07:18:34.941Z,6.10
2019-05-06T07:21:35.056Z,6.03
2019-05-06T07:24:25.744Z,6.00
2019-05-06T07:27:22.654Z,6.07
2019-05-06T07:30:12.629Z,5.77
2019-05-06T07:33:03.790Z,5.73
2019-05-06T07:35:54.202Z,5.70
2019-05-06T07:38:52.675Z,6.57
2019-05-06T07:41:57.373Z,6.37
2019-05-06T07:45:06.486Z,6.03
2019-05-06T07:48:03.387Z,5.97
2019-05-06T07:50:53.330Z,6.20
2019-05-06T07:53:44.675Z,5.67
2019-05-06T07:56:34.970Z,6.10
2019-05-06T07:59:27.039Z,5.90
2019-05-06T08:02:18.521Z,7.23
2019-05-06T08:05:09.458Z,6.23
2019-05-06T08:08:03.555Z,6.10
2019-05-06T08:10:53.128Z,5.97
2019-05-06T08:13:43.697Z,6.67
2019-05-06T08:16:38.526Z,5.97
2019-05-06T08:19:30.394Z,5.47
2019-05-06T08:22:24.232Z,6.10
2019-05-06T08:25:14.638Z,6.20
2019-05-06T08:28:05.221Z,6.27
2019-05-06T08:30:56.712Z,4.77
2019-05-06T08:33:47.135Z,4.97
2019-05-06T08:36:56.248Z,5.90
2019-05-06T08:39:46.778Z,5.00
2019-05-06T08:42:37.102Z,5.80
2019-05-06T08:45:27.800Z,5.37
2019-05-06T08:48:18.848Z,5.90
2019-05-06T08:51:26.513Z,5.60
2019-05-06T08:54:32.359Z,5.83
2019-05-06T08:57:22.805Z,5.57
2019-05-06T09:00:14.166Z,5.63
2019-05-06T09:03:05.219Z,5.03
2019-05-06T09:05:56.488Z,6.03
2019-05-06T09:08:47.640Z,5.93
2019-05-06T09:11:39.095Z,4.60
2019-05-06T09:14:32.422Z,4.67
2019-05-06T09:17:22.622Z,3.90
2019-05-06T09:20:13.915Z,4.27
2019-05-06T09:23:04.948Z,3.90
2019-05-06T09:25:55.679Z,4.63
2019-05-06T09:29:08.429Z,4.40
2019-05-06T09:32:01.914Z,3.87
2019-05-06T09:34:55.294Z,4.43
2019-05-06T09:37:46.336Z,4.07
2019-05-06T09:40:37.818Z,3.97
2019-05-06T09:43:28.857Z,4.33
2019-05-06T09:46:19.746Z,4.17
2019-05-06T09:49:18.949Z,3.80
2019-05-06T09:52:12.815Z,4.60
2019-05-06T09:55:17.857Z,3.17
2019-05-06T09:58:09.235Z,2.50
2019-05-06T10:01:02.769Z,2.20
2019-05-06T10:03:54.483Z,2.47
2019-05-06T10:06:56.276Z,2.40
2019-05-06T10:09:36.977Z,3.30
2019-05-06T10:12:27.137Z,3.70
2019-05-06T10:15:18.439Z,3.60
2019-05-06T10:18:09.173Z,3.10
2019-05-06T10:21:00.439Z,3.93
2019-05-06T10:23:52.856Z,3.80
2019-05-06T10:26:48.774Z,3.47
2019-05-06T10:29:44.487Z,4.30
2019-05-06T10:32:48.366Z,3.83
2019-05-06T10:35:39.829Z,3.53
2019-05-06T10:38:57.379Z,3.50
2019-05-06T10:41:51.141Z,3.27
2019-05-06T10:45:06.426Z,3.33
2019-05-06T10:47:57.692Z,3.60
2019-05-06T10:50:52.094Z,3.60
2019-05-06T10:53:42.548Z,3.57
2019-05-06T10:56:57.421Z,3.80
2019-05-06T10:59:47.151Z,3.70
2019-05-06T11:03:15.523Z,3.17
2019-05-06T11:06:05.976Z,3.33
2019-05-06T11:08:57.201Z,3.43
2019-05-06T11:11:48.174Z,3.17
2019-05-06T11:14:39.070Z,3.83
2019-05-06T11:17:32.492Z,3.30
2019-05-06T11:20:24.123Z,4.03
2019-05-06T11:23:15.443Z,3.57
2019-05-06T11:26:06.293Z,3.60
2019-05-06T11:29:05.077Z,3.90
2019-05-06T11:32:23.716Z,3.77
2019-05-06T11:35:19.260Z,3.63
2019-05-06T11:38:12.510Z,3.67
2019-05-06T11:41:03.576Z,3.77
2019-05-06T11:43:54.383Z,3.80
2019-05-06T11:46:45.959Z,4.40
2019-05-06T11:49:37.383Z,4.37
2019-05-06T11:52:28.780Z,3.90
2019-05-06T11:55:28.874Z,4.20
2019-05-06T11:58:30.289Z,3.87
2019-05-06T12:01:32.644Z,4.57
2019-05-06T12:04:23.084Z,4.33
2019-05-06T12:07:15.627Z,4.17
2019-05-06T12:10:07.596Z,4.60
2019-05-06T12:12:58.894Z,4.53
2019-05-06T12:15:49.105Z,4.63
2019-05-06T12:18:39.529Z,5.20
2019-05-06T12:21:29.719Z,4.90
2019-05-06T12:24:20.137Z,4.37
2019-05-06T12:27:12.608Z,4.83
2019-05-06T12:30:05.322Z,4.43
2019-05-06T12:33:23.147Z,4.37
2019-05-06T12:36:18.891Z,4.80
2019-05-06T12:39:23.025Z,4.60
2019-05-06T12:42:24.720Z,4.57
2019-05-06T12:45:34.939Z,4.63
2019-05-06T12:48:33.192Z,4.67
2019-05-06T12:51:24.459Z,4.10
2019-05-06T12:54:15.831Z,4.40
2019-05-06T12:57:06.844Z,4.70
2019-05-06T12:59:57.629Z,4.27
2019-05-06T13:02:49.975Z,4.27
2019-05-06T13:05:42.770Z,5.07
2019-05-06T13:08:52.963Z,4.60
2019-05-06T13:11:26.245Z,4.40
2019-05-06T13:14:17.542Z,4.10
2019-05-06T13:17:11.184Z,4.17
2019-05-06T13:20:01.533Z,4.23
2019-05-06T13:23:08.210Z,4.10
2019-05-06T13:25:53.421Z,4.57
2019-05-06T13:28:47.890Z,4.00
2019-05-06T13:31:38.506Z,3.73
2019-05-06T13:34:29.203Z,3.97
2019-05-06T13:37:22.693Z,3.43
2019-05-06T13:40:12.529Z,3.63
2019-05-06T13:43:40.426Z,3.50
2019-05-06T13:46:33.516Z,3.43
2019-05-06T13:49:36.372Z,3.47
2019-05-06T13:52:31.490Z,3.73
2019-05-06T13:55:22.174Z,3.63
2019-05-06T13:58:13.666Z,3.63
2019-05-06T14:01:07.697Z,3.57
2019-05-06T14:03:57.940Z,3.60
2019-05-06T14:06:49.073Z,3.53
2019-05-06T14:09:42.750Z,3.60
2019-05-06T14:12:33.132Z,3.87
2019-05-06T14:15:25.558Z,3.80
2019-05-06T14:18:16.462Z,3.43
2019-05-06T14:21:06.786Z,2.93
2019-05-06T14:23:58.090Z,3.40
2019-05-06T14:26:59.538Z,3.03
2019-05-06T14:30:04.835Z,3.33
2019-05-06T14:32:55.354Z,2.83
2019-05-06T14:35:46.074Z,2.53
2019-05-06T14:38:37.495Z,2.63
2019-05-06T14:41:29.805Z,3.20
2019-05-06T14:44:23.256Z,3.40
2019-05-06T14:47:23.104Z,3.37
2019-05-06T14:50:14.963Z,3.50
2019-05-06T14:53:05.795Z,3.23
2019-05-06T14:55:58.781Z,2.67
2019-05-06T14:59:05.720Z,2.90
2019-05-06T15:01:55.781Z,3.37
2019-05-06T15:04:47.080Z,3.00
2019-05-06T15:07:37.826Z,2.80
2019-05-06T15:10:29.144Z,2.80
2019-05-06T15:13:19.641Z,3.47
2019-05-06T15:16:13.144Z,3.10
2019-05-06T15:19:05.089Z,3.23
2019-05-06T15:21:56.787Z,3.60
2019-05-06T15:24:48.608Z,2.90
2019-05-06T15:27:39.277Z,3.17
2019-05-06T15:30:39.447Z,3.37
2019-05-06T15:33:33.546Z,2.80
2019-05-06T15:36:32.936Z,2.57
2019-05-06T15:39:23.862Z,3.13
2019-05-06T15:42:14.241Z,3.23
2019-05-06T15:45:07.186Z,3.53
2019-05-06T15:47:57.901Z,3.67
2019-05-06T15:50:48.030Z,3.40
2019-05-06T15:53:39.094Z,3.53
2019-05-06T15:56:32.772Z,3.40
2019-05-06T15:59:23.077Z,3.63
2019-05-06T16:02:14.235Z,3.73
2019-05-06T16:05:14.001Z,3.40
2019-05-06T16:07:58.201Z,3.53
2019-05-06T16:10:52.505Z,3.73
2019-05-06T16:13:42.180Z,3.23
2019-05-06T16:16:33.845Z,2.87
2019-05-06T16:19:24.410Z,3.00
2019-05-06T16:22:14.902Z,3.00
2019-05-06T16:25:10.325Z,3.00
2019-05-06T16:28:02.261Z,3.17
2019-05-06T16:30:53.716Z,3.17
2019-05-06T16:33:45.508Z,3.17
2019-05-06T16:36:36.576Z,3.37
2019-05-06T16:39:27.105Z,2.70
2019-05-06T16:42:18.524Z,2.87
2019-05-06T16:45:12.412Z,2.80
2019-05-06T16:48:03.610Z,2.97
2019-05-06T16:50:55.221Z,3.00
2019-05-06T16:53:46.484Z,3.27
2019-05-06T16:56:44.640Z,3.27
2019-05-06T16:59:36.707Z,3.40
2019-05-06T17:02:33.568Z,3.00
2019-05-06T17:05:42.463Z,3.03
2019-05-06T17:08:36.403Z,2.60
2019-05-06T17:11:30.304Z,3.00
2019-05-06T17:14:17.077Z,2.60
2019-05-06T17:17:08.068Z,3.23
2019-05-06T17:19:58.489Z,2.80
2019-05-06T17:22:49.127Z,3.10
2019-05-06T17:25:41.880Z,3.13
2019-05-06T17:28:45.015Z,3.67
2019-05-06T17:31:54.363Z,3.00
2019-05-06T17:34:48.896Z,3.60
2019-05-06T17:38:14.692Z,3.03
2019-05-06T17:41:05.805Z,3.00
2019-05-06T17:43:56.225Z,2.90
2019-05-06T17:47:09.047Z,3.20
2019-05-06T17:49:59.777Z,2.87
2019-05-06T17:52:52.631Z,3.17
2019-05-06T17:55:43.340Z,3.10
2019-05-06T17:58:34.961Z,3.17
2019-05-06T18:01:34.311Z,3.60
2019-05-06T18:04:24.994Z,3.33
2019-05-06T18:07:15.379Z,2.77
2019-05-06T18:10:07.904Z,3.10
2019-05-06T18:12:58.879Z,3.40
2019-05-06T18:15:49.500Z,2.70
2019-05-06T18:18:40.879Z,2.93
2019-05-06T18:21:31.690Z,3.20
2019-05-06T18:24:23.097Z,3.07
2019-05-06T18:27:13.811Z,3.40
2019-05-06T18:30:17.704Z,3.40
2019-05-06T18:32:57.426Z,3.10
2019-05-06T18:35:47.556Z,3.10
2019-05-06T18:38:38.287Z,2.53
2019-05-06T18:41:29.572Z,3.13
2019-05-06T18:44:22.727Z,3.50
2019-05-06T18:47:12.859Z,3.57
2019-05-06T18:50:04.571Z,3.40
2019-05-06T18:52:55.039Z,3.07
2019-05-06T18:55:45.957Z,4.50
2019-05-06T18:58:36.898Z,5.00
2019-05-06T19:01:27.971Z,7.47
2019-05-06T19:04:38.126Z,7.67
2019-05-06T19:07:28.805Z,4.70
2019-05-06T19:10:25.450Z,4.20
2019-05-06T19:13:16.110Z,4.53
2019-05-06T19:16:06.766Z,4.23
2019-05-06T19:18:58.079Z,3.97
2019-05-06T19:21:49.337Z,4.00
2019-05-06T19:24:40.023Z,3.80
2019-05-06T19:27:32.833Z,3.47
2019-05-06T19:30:23.300Z,3.83
2019-05-06T19:33:14.338Z,4.00
2019-05-06T19:36:05.566Z,3.53
2019-05-06T19:38:56.938Z,4.10
2019-05-06T19:41:47.073Z,4.17
2019-05-06T19:44:37.280Z,4.13
2019-05-06T19:47:28.669Z,4.50
2019-05-06T19:50:21.133Z,4.10
2019-05-06T19:53:11.892Z,3.70
2019-05-06T19:56:02.854Z,3.40
2019-05-06T19:58:53.416Z,3.53
2019-05-06T20:01:43.739Z,3.47
2019-05-06T20:04:36.312Z,4.10
2019-05-06T20:07:36.086Z,3.63
2019-05-06T20:10:45.182Z,4.20
2019-05-06T20:13:35.797Z,3.67
2019-05-06T20:16:26.982Z,3.87
2019-05-06T20:19:29.806Z,3.80
2019-05-06T20:22:09.990Z,4.30
2019-05-06T20:25:03.091Z,4.00
2019-05-06T20:27:54.980Z,4.20
2019-05-06T20:30:46.152Z,3.80
2019-05-06T20:33:37.504Z,4.10
2019-05-06T20:36:28.259Z,4.70
2019-05-06T20:39:18.650Z,3.83
2019-05-06T20:42:09.266Z,3.93
2019-05-06T20:45:02.148Z,4.00
2019-05-06T20:47:54.872Z,3.27
2019-05-06T20:50:45.429Z,3.50
2019-05-06T20:53:36.371Z,3.73
2019-05-06T20:56:26.884Z,4.07
2019-05-06T20:59:17.493Z,3.67
2019-05-06T21:02:08.730Z,4.17
2019-05-06T21:04:59.616Z,4.20
2019-05-06T21:07:52.578Z,4.03
2019-05-06T21:10:43.551Z,4.57
2019-05-06T21:13:35.588Z,4.07
2019-05-06T21:16:26.068Z,4.37
2019-05-06T21:19:17.028Z,4.13
2019-05-06T21:22:08.244Z,4.00
2019-05-06T21:24:58.862Z,4.70
2019-05-06T21:27:49.879Z,3.63
2019-05-06T21:30:42.883Z,4.20
2019-05-06T21:33:33.225Z,4.73
2019-05-06T21:36:23.928Z,4.30
2019-05-06T21:39:14.923Z,4.60
2019-05-06T21:42:05.926Z,3.80
2019-05-06T21:44:57.300Z,3.80
2019-05-06T21:47:48.334Z,3.57
2019-05-06T21:50:38.750Z,3.80
2019-05-06T21:53:29.279Z,3.90
2019-05-06T21:56:22.423Z,3.70
2019-05-06T21:59:13.064Z,3.83
2019-05-06T22:02:05.910Z,4.30
2019-05-06T22:04:56.782Z,3.97
2019-05-06T22:07:47.893Z,3.87
2019-05-06T22:10:38.316Z,3.87
2019-05-06T22:13:29.540Z,3.90
2019-05-06T22:16:19.814Z,4.17
2019-05-06T22:19:12.061Z,4.20
2019-05-06T22:22:07.759Z,3.90
2019-05-06T22:24:58.763Z,3.90
2019-05-06T22:27:49.102Z,4.57
2019-05-06T22:30:39.389Z,4.13
2019-05-06T22:33:31.795Z,4.37
2019-05-06T22:36:23.271Z,4.83
2019-05-06T22:39:13.715Z,4.17
2019-05-06T22:42:05.019Z,4.47
2019-05-06T22:44:55.280Z,4.30
2019-05-06T22:47:46.470Z,4.33
2019-05-06T22:50:37.003Z,4.87
2019-05-06T22:53:27.760Z,5.23
2019-05-06T22:56:18.984Z,5.30
2019-05-06T22:59:12.136Z,5.47
2019-05-06T23:02:33.918Z,5.33
2019-05-06T23:05:25.584Z,5.67
2019-05-06T23:08:16.983Z,5.83
2019-05-06T23:11:07.711Z,5.70
2019-05-06T23:13:59.796Z,5.33
2019-05-06T23:16:52.082Z,4.97
2019-05-06T23:19:42.938Z,5.40
2019-05-06T23:22:34.540Z,6.00
2019-05-06T23:25:24.990Z,5.63
2019-05-06T23:28:15.673Z,5.20
2019-05-06T23:31:06.084Z,6.47
2019-05-06T23:33:57.082Z,5.77
2019-05-06T23:37:23.601Z,6.03
2019-05-06T23:41:09.130Z,5.57
2019-05-06T23:44:54.756Z,5.87
2019-05-06T23:48:43.003Z,5.97
2019-05-06T23:52:28.246Z,5.60
2019-05-06T23:56:13.336Z,5.97
2019-05-06T23:59:03.955Z,5.93
